createdAt,value
2019-02-26T00:00:49.651Z,3.08
2019-02-26T00:03:22.054Z,2.83
2019-02-26T00:05:50.243Z,2.72
2019-02-26T00:08:21.829Z,2.66
2019-02-26T00:10:50.763Z,2.68
2019-02-26T00:13:18.880Z,2.57
2019-02-26T00:15:48.463Z,2.53
2019-02-26T00:18:18.781Z,2.54
2019-02-26T00:20:46.782Z,2.56
2019-02-26T00:23:14.864Z,2.61
2019-02-26T00:25:43.145Z,2.32
2019-02-26T00:28:13.073Z,2.32
2019-02-26T00:30:42.502Z,2.36
2019-02-26T00:33:10.862Z,2.38
2019-02-26T00:35:41.150Z,2.30
2019-02-26T00:38:11.072Z,2.28
2019-02-26T00:40:40.907Z,2.31
2019-02-26T00:43:09.360Z,2.39
2019-02-26T00:45:39.100Z,2.42
2019-02-26T00:48:07.542Z,2.32
2019-02-26T00:50:37.291Z,2.43
2019-02-26T00:53:05.720Z,2.38
2019-02-26T00:55:34.878Z,2.43
2019-02-26T00:58:05.981Z,2.43
2019-02-26T01:00:35.465Z,2.30
2019-02-26T01:03:05.729Z,2.23
2019-02-26T01:05:35.860Z,2.31
2019-02-26T01:08:06.005Z,2.17
2019-02-26T01:10:35.022Z,2.13
2019-02-26T01:13:05.133Z,2.04
2019-02-26T01:15:34.820Z,2.17
2019-02-26T01:18:03.800Z,2.08
2019-02-26T01:20:32.958Z,2.06
2019-02-26T01:23:01.129Z,2.17
2019-02-26T01:25:29.336Z,2.18
2019-02-26T01:28:00.284Z,2.33
2019-02-26T01:30:29.389Z,2.09
2019-02-26T01:33:00.607Z,2.01
2019-02-26T01:35:30.783Z,1.96
2019-02-26T01:38:00.598Z,2.00
2019-02-26T01:40:29.638Z,1.88
2019-02-26T01:43:02.607Z,2.10
2019-02-26T01:45:30.358Z,2.14
2019-02-26T01:47:59.655Z,2.01
2019-02-26T01:50:30.880Z,1.89
2019-02-26T01:53:01.084Z,1.88
2019-02-26T01:55:29.352Z,1.99
2019-02-26T01:57:58.808Z,1.89
2019-02-26T02:00:27.913Z,1.71
2019-02-26T02:02:56.379Z,1.69
2019-02-26T02:05:28.150Z,1.93
2019-02-26T02:07:56.005Z,1.78
2019-02-26T02:10:24.329Z,1.74
2019-02-26T02:12:55.281Z,1.65
2019-02-26T02:15:23.733Z,1.67
2019-02-26T02:17:57.732Z,1.69
2019-02-26T02:20:26.977Z,1.77
2019-02-26T02:22:56.021Z,1.42
2019-02-26T02:25:29.013Z,1.46
2019-02-26T02:27:57.490Z,1.44
2019-02-26T02:30:30.389Z,1.57
2019-02-26T02:32:59.537Z,1.52
2019-02-26T02:35:28.286Z,1.47
2019-02-26T02:37:59.588Z,1.61
2019-02-26T02:40:26.774Z,1.56
2019-02-26T02:42:56.074Z,1.46
2019-02-26T02:45:24.235Z,1.24
2019-02-26T02:47:57.700Z,1.25
2019-02-26T02:50:23.027Z,1.43
2019-02-26T02:52:53.465Z,1.38
2019-02-26T02:55:21.857Z,1.22
2019-02-26T02:57:52.552Z,1.09
2019-02-26T03:00:25.322Z,1.18
2019-02-26T03:02:53.100Z,1.33
2019-02-26T03:05:21.863Z,1.29
2019-02-26T03:07:53.555Z,1.32
2019-02-26T03:10:26.105Z,1.38
2019-02-26T03:12:56.877Z,1.20
2019-02-26T03:15:26.452Z,1.23
2019-02-26T03:17:54.545Z,1.08
2019-02-26T03:20:24.736Z,0.98
2019-02-26T03:22:54.682Z,0.96
2019-02-26T03:25:26.390Z,1.14
2019-02-26T03:27:55.009Z,1.05
2019-02-26T03:30:31.797Z,1.09
2019-02-26T03:32:58.429Z,1.07
2019-02-26T03:35:23.988Z,1.16
2019-02-26T03:37:54.768Z,0.96
2019-02-26T03:43:41.795Z,1.12
2019-02-26T03:46:10.179Z,1.10
2019-02-26T03:48:38.251Z,1.12
2019-02-26T03:51:06.317Z,1.23
2019-02-26T03:53:36.432Z,1.08
2019-02-26T03:56:08.181Z,0.92
2019-02-26T03:58:35.718Z,0.94
2019-02-26T04:01:07.285Z,1.09
2019-02-26T04:03:35.312Z,1.10
2019-02-26T04:06:07.487Z,0.79
2019-02-26T04:08:35.371Z,0.83
2019-02-26T04:11:03.944Z,0.90
2019-02-26T04:13:32.909Z,0.98
2019-02-26T04:16:04.528Z,0.86
2019-02-26T04:18:34.359Z,0.91
2019-02-26T04:21:05.710Z,0.78
2019-02-26T04:23:33.167Z,0.75
2019-02-26T04:27:00.432Z,0.76
2019-02-26T04:29:54.919Z,0.68
2019-02-26T04:33:23.912Z,0.71
2019-02-26T04:36:34.353Z,0.59
2019-02-26T04:40:15.589Z,0.65
2019-02-26T04:43:36.984Z,0.72
2019-02-26T04:46:31.652Z,0.51
2019-02-26T04:49:01.658Z,0.68
2019-02-26T04:51:30.087Z,0.66
2019-02-26T04:53:59.517Z,0.80
2019-02-26T04:56:31.302Z,0.75
2019-02-26T04:58:58.609Z,0.85
2019-02-26T05:01:26.819Z,0.74
2019-02-26T05:03:55.219Z,0.77
2019-02-26T05:06:24.702Z,0.85
2019-02-26T05:08:55.993Z,0.82
2019-02-26T05:11:31.399Z,0.83
2019-02-26T05:13:53.517Z,0.86
2019-02-26T05:16:21.704Z,0.76
2019-02-26T05:18:51.674Z,0.85
2019-02-26T05:21:21.263Z,0.94
2019-02-26T05:23:52.291Z,0.79
2019-02-26T05:26:20.821Z,0.87
2019-02-26T05:28:51.557Z,0.37
2019-02-26T05:31:20.403Z,0.53
2019-02-26T05:33:50.127Z,0.55
2019-02-26T05:36:18.745Z,0.55
2019-02-26T05:38:49.267Z,0.69
2019-02-26T05:41:19.575Z,0.44
2019-02-26T05:43:55.304Z,0.58
2019-02-26T05:46:23.895Z,0.70
2019-02-26T05:48:51.717Z,0.74
2019-02-26T05:51:21.211Z,0.65
2019-02-26T05:53:49.890Z,0.53
2019-02-26T05:56:20.703Z,0.50
2019-02-26T05:58:51.298Z,0.34
2019-02-26T06:01:21.863Z,0.33
2019-02-26T06:03:51.885Z,0.29
2019-02-26T06:06:20.286Z,-0.01
2019-02-26T06:08:48.703Z,0.31
2019-02-26T06:11:18.929Z,0.42
2019-02-26T06:13:48.776Z,0.38
2019-02-26T06:16:19.760Z,0.10
2019-02-26T06:18:51.902Z,0.15
2019-02-26T06:21:20.967Z,0.33
2019-02-26T06:23:53.067Z,0.26
2019-02-26T06:26:22.861Z,0.12
2019-02-26T06:28:53.367Z,0.09
2019-02-26T06:31:40.097Z,0.26
2019-02-26T06:34:11.890Z,0.12
2019-02-26T06:36:41.992Z,0.05
2019-02-26T06:39:12.395Z,0.16
2019-02-26T06:41:41.929Z,0.17
2019-02-26T06:44:10.925Z,0.35
2019-02-26T06:46:39.320Z,0.32
2019-02-26T06:49:07.530Z,0.16
2019-02-26T06:51:36.847Z,0.23
2019-02-26T06:54:05.225Z,0.50
2019-02-26T06:56:37.069Z,0.67
2019-02-26T06:59:09.933Z,0.72
2019-02-26T07:01:39.621Z,0.68
2019-02-26T07:04:12.190Z,0.73
2019-02-26T07:06:39.178Z,0.48
2019-02-26T07:09:08.724Z,0.18
2019-02-26T07:11:38.084Z,0.38
2019-02-26T07:14:07.995Z,0.46
2019-02-26T07:16:39.808Z,0.63
2019-02-26T07:19:08.946Z,0.66
2019-02-26T07:21:38.019Z,0.77
2019-02-26T07:24:07.745Z,0.94
2019-02-26T07:26:38.513Z,0.89
2019-02-26T07:29:08.107Z,1.21
2019-02-26T07:31:37.351Z,1.14
2019-02-26T07:34:06.579Z,1.17
2019-02-26T07:36:35.064Z,1.27
2019-02-26T07:39:06.244Z,1.38
2019-02-26T07:41:34.685Z,1.48
2019-02-26T07:44:02.817Z,1.68
2019-02-26T07:46:33.179Z,1.70
2019-02-26T07:52:59.782Z,2.05
2019-02-26T07:55:30.208Z,2.02
2019-02-26T07:57:58.109Z,2.12
2019-02-26T08:00:26.463Z,2.47
2019-02-26T08:02:57.015Z,2.60
2019-02-26T08:05:28.325Z,2.78
2019-02-26T08:07:58.629Z,2.95
2019-02-26T08:10:26.792Z,2.86
2019-02-26T08:12:56.611Z,3.06
2019-02-26T08:15:27.646Z,3.18
2019-02-26T08:17:57.924Z,3.24
2019-02-26T08:20:25.693Z,3.45
2019-02-26T08:22:56.355Z,3.51
2019-02-26T08:25:24.367Z,3.66
2019-02-26T08:27:54.041Z,3.76
2019-02-26T08:30:26.056Z,3.86
2019-02-26T08:32:55.770Z,4.01
2019-02-26T08:35:24.804Z,4.10
2019-02-26T08:37:53.577Z,4.29
2019-02-26T08:40:22.031Z,4.38
2019-02-26T08:42:50.331Z,4.60
2019-02-26T08:45:21.169Z,4.70
2019-02-26T08:47:49.348Z,4.81
2019-02-26T08:50:17.858Z,4.95
2019-02-26T08:52:49.470Z,5.14
2019-02-26T08:55:20.836Z,5.30
2019-02-26T08:57:51.252Z,5.52
2019-02-26T09:00:18.324Z,5.58
2019-02-26T09:02:50.608Z,5.71
2019-02-26T09:05:17.944Z,5.83
2019-02-26T09:07:47.540Z,6.01
2019-02-26T09:10:17.932Z,6.16
2019-02-26T09:12:48.698Z,6.37
2019-02-26T09:15:17.254Z,6.53
2019-02-26T09:17:45.346Z,6.63
2019-02-26T09:20:14.791Z,6.85
2019-02-26T09:22:47.978Z,6.86
2019-02-26T09:25:14.457Z,6.88
2019-02-26T09:27:43.221Z,6.87
2019-02-26T09:30:16.158Z,6.95
2019-02-26T09:32:44.929Z,7.11
2019-02-26T09:35:16.256Z,7.17
2019-02-26T09:37:45.403Z,7.18
2019-02-26T09:40:17.181Z,7.35
2019-02-26T09:42:47.206Z,7.59
2019-02-26T09:45:17.897Z,7.59
2019-02-26T09:47:49.288Z,7.68
2019-02-26T09:50:17.726Z,7.76
2019-02-26T09:52:47.861Z,7.91
2019-02-26T09:55:17.302Z,8.07
2019-02-26T09:57:45.787Z,8.01
2019-02-26T10:00:19.537Z,8.23
2019-02-26T10:02:49.923Z,8.22
2019-02-26T10:05:19.271Z,8.33
2019-02-26T10:07:47.848Z,8.21
2019-02-26T10:10:17.004Z,8.51
2019-02-26T10:12:45.376Z,8.69
2019-02-26T10:15:14.947Z,8.65
2019-02-26T10:17:45.053Z,8.62
2019-02-26T10:20:20.019Z,8.89
2019-02-26T10:22:49.702Z,8.74
2019-02-26T10:25:18.254Z,8.80
2019-02-26T10:27:47.886Z,8.99
2019-02-26T10:30:16.488Z,9.18
2019-02-26T10:32:46.820Z,9.34
2019-02-26T10:35:18.649Z,9.34
2019-02-26T10:37:53.568Z,9.37
2019-02-26T10:40:21.796Z,9.35
2019-02-26T10:42:50.208Z,9.48
2019-02-26T10:45:22.175Z,9.59
2019-02-26T10:47:51.256Z,9.67
2019-02-26T10:50:22.840Z,9.64
2019-02-26T10:52:52.649Z,9.69
2019-02-26T10:55:24.269Z,9.81
2019-02-26T10:58:11.150Z,10.13
2019-02-26T11:00:40.106Z,10.38
2019-02-26T11:03:12.184Z,10.33
2019-02-26T11:05:40.601Z,10.28
2019-02-26T11:08:09.984Z,10.74
2019-02-26T11:10:41.380Z,11.03
2019-02-26T11:13:08.727Z,11.03
2019-02-26T11:15:39.347Z,11.38
2019-02-26T11:18:11.757Z,11.45
2019-02-26T11:20:39.599Z,11.20
2019-02-26T11:23:08.979Z,11.26
2019-02-26T11:25:38.219Z,11.20
2019-02-26T11:28:07.452Z,11.49
2019-02-26T11:30:36.658Z,11.49
2019-02-26T11:33:08.063Z,11.48
2019-02-26T11:35:35.831Z,11.64
2019-02-26T11:38:04.236Z,11.67
2019-02-26T11:40:32.436Z,12.08
2019-02-26T11:43:10.874Z,12.02
2019-02-26T11:45:32.888Z,11.93
2019-02-26T11:48:03.703Z,12.18
2019-02-26T11:50:32.963Z,11.84
2019-02-26T11:53:01.044Z,12.07
2019-02-26T11:55:31.849Z,12.50
2019-02-26T11:57:59.157Z,12.29
2019-02-26T12:00:36.488Z,12.58
2019-02-26T12:03:05.241Z,12.68
2019-02-26T12:05:36.673Z,12.65
2019-02-26T12:08:05.970Z,12.64
2019-02-26T12:10:37.215Z,12.69
2019-02-26T12:13:04.655Z,13.08
2019-02-26T12:15:33.479Z,12.66
2019-02-26T12:18:02.855Z,12.67
2019-02-26T12:20:31.276Z,12.90
2019-02-26T12:23:01.456Z,12.83
2019-02-26T12:25:29.901Z,13.24
2019-02-26T12:28:00.008Z,13.25
2019-02-26T12:30:28.135Z,13.11
2019-02-26T12:32:56.352Z,13.20
2019-02-26T12:35:24.748Z,13.19
2019-02-26T12:37:55.716Z,13.25
2019-02-26T12:40:25.345Z,13.31
2019-02-26T12:42:52.978Z,13.55
2019-02-26T12:45:22.064Z,13.48
2019-02-26T12:47:53.058Z,13.82
2019-02-26T12:50:23.795Z,13.77
2019-02-26T12:52:53.845Z,13.78
2019-02-26T12:55:28.629Z,13.91
2019-02-26T12:57:52.793Z,14.01
2019-02-26T13:00:23.172Z,13.84
2019-02-26T13:02:52.514Z,13.96
2019-02-26T13:05:23.000Z,14.10
2019-02-26T13:07:50.818Z,13.79
2019-02-26T13:10:20.745Z,13.93
2019-02-26T13:12:53.610Z,13.92
2019-02-26T13:15:37.236Z,14.50
2019-02-26T13:18:06.150Z,14.26
2019-02-26T13:20:34.340Z,14.08
2019-02-26T13:25:33.018Z,14.46
2019-02-26T13:28:01.227Z,14.97
2019-02-26T13:30:29.415Z,15.03
2019-02-26T13:35:29.298Z,14.53
2019-02-26T13:37:58.047Z,14.55
2019-02-26T13:40:26.719Z,14.51
2019-02-26T13:45:26.198Z,14.51
2019-02-26T13:48:01.022Z,14.41
2019-02-26T13:50:26.936Z,15.01
2019-02-26T13:52:55.627Z,14.90
2019-02-26T13:55:24.724Z,14.90
2019-02-26T13:57:52.992Z,14.81
2019-02-26T14:00:26.372Z,14.88
2019-02-26T14:02:51.921Z,14.90
2019-02-26T14:05:20.696Z,14.72
2019-02-26T14:07:48.922Z,14.66
2019-02-26T14:10:17.252Z,14.61
2019-02-26T14:12:45.576Z,15.09
2019-02-26T14:15:18.632Z,15.12
2019-02-26T14:17:47.205Z,14.94
2019-02-26T14:20:15.252Z,14.81
2019-02-26T14:22:43.703Z,15.02
2019-02-26T14:25:12.000Z,14.72
2019-02-26T14:27:40.560Z,14.74
2019-02-26T14:30:10.409Z,14.57
2019-02-26T14:32:38.584Z,14.75
2019-02-26T14:35:08.694Z,15.16
2019-02-26T14:37:36.843Z,15.07
2019-02-26T14:40:08.102Z,14.77
2019-02-26T14:42:36.432Z,14.60
2019-02-26T14:45:05.944Z,14.45
2019-02-26T14:47:34.832Z,14.78
2019-02-26T14:50:05.174Z,15.04
2019-02-26T14:52:35.065Z,14.68
2019-02-26T14:55:04.419Z,14.46
2019-02-26T14:57:32.587Z,14.79
2019-02-26T15:00:01.503Z,14.92
2019-02-26T15:02:29.629Z,14.96
2019-02-26T15:04:58.073Z,15.35
2019-02-26T15:07:26.925Z,15.14
2019-02-26T15:09:55.858Z,15.32
2019-02-26T15:12:23.977Z,15.19
2019-02-26T15:14:52.506Z,15.05
2019-02-26T15:17:20.767Z,14.87
2019-02-26T15:19:51.335Z,14.79
2019-02-26T15:22:19.172Z,14.73
2019-02-26T15:24:47.648Z,14.40
2019-02-26T15:27:16.076Z,14.42
2019-02-26T15:29:44.255Z,14.34
2019-02-26T15:32:12.919Z,14.64
2019-02-26T15:34:41.005Z,14.86
2019-02-26T15:37:09.505Z,14.91
2019-02-26T15:39:38.939Z,14.88
2019-02-26T15:42:07.024Z,14.79
2019-02-26T15:44:35.361Z,14.57
2019-02-26T15:47:04.350Z,14.61
2019-02-26T15:49:32.523Z,14.15
2019-02-26T15:52:00.938Z,13.97
2019-02-26T15:54:29.147Z,14.15
2019-02-26T15:57:00.454Z,14.33
2019-02-26T15:59:28.281Z,14.13
2019-02-26T16:01:56.705Z,14.36
2019-02-26T16:04:26.785Z,14.09
2019-02-26T16:06:55.507Z,14.20
2019-02-26T16:09:23.737Z,14.49
2019-02-26T16:11:52.107Z,14.67
2019-02-26T16:14:20.182Z,14.57
2019-02-26T16:16:48.655Z,14.26
2019-02-26T16:19:16.982Z,13.95
2019-02-26T16:21:45.168Z,13.80
2019-02-26T16:24:13.419Z,13.35
2019-02-26T16:26:41.947Z,13.00
2019-02-26T16:29:09.982Z,12.82
2019-02-26T16:31:38.226Z,12.60
2019-02-26T16:34:06.381Z,12.55
2019-02-26T16:36:34.462Z,12.31
2019-02-26T16:39:04.021Z,12.50
2019-02-26T16:41:32.102Z,12.12
2019-02-26T16:44:00.207Z,11.86
2019-02-26T16:46:28.876Z,11.76
2019-02-26T16:48:57.078Z,11.57
2019-02-26T16:51:25.125Z,11.45
2019-02-26T16:53:53.405Z,11.35
2019-02-26T16:56:22.463Z,11.20
2019-02-26T16:58:51.006Z,10.99
2019-02-26T17:01:19.756Z,10.80
2019-02-26T17:03:49.398Z,10.72
2019-02-26T17:06:20.505Z,10.67
2019-02-26T17:08:47.864Z,10.53
2019-02-26T17:11:16.290Z,10.40
2019-02-26T17:13:44.419Z,10.35
2019-02-26T17:16:12.487Z,10.16
2019-02-26T17:18:42.791Z,10.04
2019-02-26T17:21:10.631Z,9.85
2019-02-26T17:23:38.917Z,9.66
2019-02-26T17:26:07.368Z,9.54
2019-02-26T17:28:35.600Z,9.42
2019-02-26T17:31:03.691Z,9.31
2019-02-26T17:33:32.069Z,9.23
2019-02-26T17:36:01.975Z,9.14
2019-02-26T17:38:30.740Z,9.10
2019-02-26T17:40:59.113Z,8.98
2019-02-26T17:43:27.190Z,8.82
2019-02-26T17:45:55.290Z,8.71
2019-02-26T17:48:23.562Z,8.67
2019-02-26T17:50:51.832Z,8.56
2019-02-26T17:53:20.212Z,8.48
2019-02-26T17:55:48.382Z,8.40
2019-02-26T17:58:16.483Z,8.31
2019-02-26T18:00:46.137Z,8.19
2019-02-26T18:03:14.321Z,8.09
2019-02-26T18:05:51.004Z,7.98
2019-02-26T18:08:14.369Z,7.90
2019-02-26T18:10:42.660Z,7.85
2019-02-26T18:13:11.108Z,7.78
2019-02-26T18:15:39.568Z,7.73
2019-02-26T18:18:07.696Z,7.68
2019-02-26T18:20:36.040Z,7.62
2019-02-26T18:23:04.327Z,7.58
2019-02-26T18:25:32.473Z,7.48
2019-02-26T18:28:00.771Z,7.47
2019-02-26T18:30:29.060Z,7.39
2019-02-26T18:32:58.977Z,7.32
2019-02-26T18:35:27.613Z,7.25
2019-02-26T18:37:57.116Z,7.21
2019-02-26T18:40:27.973Z,7.19
2019-02-26T18:42:55.214Z,7.14
2019-02-26T18:45:27.455Z,7.05
2019-02-26T18:47:54.348Z,6.98
2019-02-26T18:50:23.199Z,6.90
2019-02-26T18:52:51.454Z,6.85
2019-02-26T18:55:19.783Z,6.79
2019-02-26T18:57:48.004Z,6.70
2019-02-26T19:00:19.838Z,6.66
2019-02-26T19:02:48.061Z,6.59
2019-02-26T19:05:20.416Z,6.56
2019-02-26T19:07:46.506Z,6.53
2019-02-26T19:10:17.759Z,6.43
2019-02-26T19:12:45.436Z,6.30
2019-02-26T19:15:15.379Z,6.25
2019-02-26T19:17:46.466Z,6.19
2019-02-26T19:20:15.589Z,6.04
2019-02-26T19:22:44.903Z,5.98
2019-02-26T19:25:13.156Z,5.95
2019-02-26T19:27:41.368Z,5.95
2019-02-26T19:30:13.186Z,5.93
2019-02-26T19:32:41.318Z,5.96
2019-02-26T19:35:12.316Z,5.95
2019-02-26T19:37:40.035Z,6.01
2019-02-26T19:40:11.105Z,5.98
2019-02-26T19:42:40.336Z,5.96
2019-02-26T19:45:11.764Z,5.97
2019-02-26T19:47:39.862Z,5.91
2019-02-26T19:50:11.708Z,5.87
2019-02-26T19:52:56.686Z,5.81
2019-02-26T19:55:29.628Z,5.77
2019-02-26T19:58:02.896Z,5.64
2019-02-26T20:00:29.608Z,5.55
2019-02-26T20:02:57.721Z,5.47
2019-02-26T20:05:26.000Z,5.41
2019-02-26T20:07:54.081Z,5.39
2019-02-26T20:10:22.239Z,5.33
2019-02-26T20:12:50.774Z,5.19
2019-02-26T20:15:21.746Z,5.13
2019-02-26T20:17:49.757Z,5.17
2019-02-26T20:20:18.288Z,5.07
2019-02-26T20:22:46.776Z,4.99
2019-02-26T20:25:15.682Z,4.95
2019-02-26T20:27:44.263Z,5.00
2019-02-26T20:30:15.654Z,5.00
2019-02-26T20:32:43.782Z,4.99
2019-02-26T20:35:12.529Z,4.96
2019-02-26T20:37:41.003Z,4.78
2019-02-26T20:40:16.114Z,4.66
2019-02-26T20:42:42.218Z,4.66
2019-02-26T20:45:17.707Z,4.72
2019-02-26T20:47:46.208Z,4.61
2019-02-26T20:50:14.302Z,4.60
2019-02-26T20:52:42.590Z,4.51
2019-02-26T20:55:13.065Z,4.43
2019-02-26T20:57:41.490Z,4.37
2019-02-26T21:00:13.495Z,4.35
2019-02-26T21:02:41.614Z,4.35
2019-02-26T21:05:10.214Z,4.36
2019-02-26T21:07:38.356Z,4.29
2019-02-26T21:10:07.822Z,4.18
2019-02-26T21:12:35.981Z,4.17
2019-02-26T21:15:06.448Z,4.22
2019-02-26T21:17:34.514Z,4.25
2019-02-26T21:20:03.028Z,4.19
2019-02-26T21:22:32.972Z,4.15
2019-02-26T21:25:01.085Z,4.12
2019-02-26T21:27:29.158Z,4.09
2019-02-26T21:29:57.268Z,4.06
2019-02-26T21:32:25.772Z,4.08
2019-02-26T21:34:54.517Z,4.05
2019-02-26T21:37:22.663Z,4.01
2019-02-26T21:39:50.874Z,4.00
2019-02-26T21:42:18.914Z,3.99
2019-02-26T21:44:47.654Z,3.95
2019-02-26T21:47:15.713Z,3.97
2019-02-26T21:49:43.822Z,3.93
2019-02-26T21:52:11.972Z,3.94
2019-02-26T21:54:40.346Z,3.86
2019-02-26T21:57:08.621Z,3.94
2019-02-26T21:59:37.840Z,3.90
2019-02-26T22:02:05.990Z,3.93
2019-02-26T22:04:34.178Z,3.75
2019-02-26T22:07:02.278Z,3.65
2019-02-26T22:09:30.655Z,3.63
2019-02-26T22:11:58.750Z,3.52
2019-02-26T22:14:27.010Z,3.52
2019-02-26T22:16:57.069Z,3.50
2019-02-26T22:19:25.242Z,3.47
2019-02-26T22:21:53.644Z,3.42
2019-02-26T22:24:21.721Z,3.43
2019-02-26T22:26:50.269Z,3.65
2019-02-26T22:29:18.313Z,3.58
2019-02-26T22:31:46.807Z,3.43
2019-02-26T22:34:16.737Z,3.47
2019-02-26T22:36:45.422Z,3.45
2019-02-26T22:39:13.916Z,3.36
2019-02-26T22:41:42.052Z,3.43
2019-02-26T22:44:10.523Z,3.38
2019-02-26T22:46:38.702Z,3.22
2019-02-26T22:49:06.788Z,3.10
2019-02-26T22:51:35.055Z,3.06
2019-02-26T22:54:03.217Z,3.08
2019-02-26T22:56:33.234Z,2.99
2019-02-26T22:59:01.293Z,3.00
2019-02-26T23:01:36.331Z,3.02
2019-02-26T23:04:03.940Z,2.97
2019-02-26T23:06:32.458Z,2.87
2019-02-26T23:09:01.032Z,2.77
2019-02-26T23:11:32.508Z,2.49
2019-02-26T23:14:02.558Z,2.67
2019-02-26T23:16:30.203Z,2.40
2019-02-26T23:18:58.439Z,2.47
2019-02-26T23:21:26.917Z,2.39
2019-02-26T23:23:55.413Z,2.35
2019-02-26T23:26:24.021Z,2.33
2019-02-26T23:28:54.864Z,2.37
2019-02-26T23:31:23.910Z,2.32
2019-02-26T23:33:52.026Z,2.31
2019-02-26T23:36:20.450Z,2.34
2019-02-26T23:38:48.625Z,2.45
2019-02-26T23:41:16.865Z,2.52
2019-02-26T23:43:45.365Z,2.46
2019-02-26T23:46:14.271Z,2.38
2019-02-26T23:48:42.324Z,2.37
2019-02-26T23:51:10.537Z,2.32
2019-02-26T23:53:39.750Z,2.36
2019-02-26T23:56:07.976Z,2.51
2019-02-26T23:58:36.108Z,2.54
